St. George, Utah Weather observations

Data are for observation ending at time listed.
 Day   Time    Ave.   Ave.  Ave.  Vector   Max.   Stn.    Total    Solar   Ave.  
  of    of     Air    Rel.  Wind   Wind    Wind   Baro.  Precip.   Rad.    Soil  
Year   Day     Temp.  Hum.  Speed  Dir.    Gust   Pres.                    Temp. 
2017   (MST)    F      %     mph   deg.    mph     mb.     in.     W/m2     F   
------------------------------------------------------------------------------
  35   22:10   51.8    58    0.5    44      1.3   920.1    0.00       0    55.5
  35   22:20   51.5    58    0.3     9      1.6   920.3    0.00       0    55.5
  35   22:30   50.9    60    0.9   331      1.8   920.5    0.00       0    55.4
  35   22:40   50.5    60    0.7    35      2.0   920.6    0.00       0    55.3
  35   22:50   50.0    61    0.5   210      1.6   920.7    0.00       0    55.2
  35   23:00   49.2    63    0.0     0      0.0   920.7    0.00       0    55.1
  35   23:10   48.7    64    0.0     0      0.0   920.7    0.00       0    55.0
  35   23:20   48.2    65    0.6   340      2.4   920.8    0.00       0    55.0
  35   23:30   49.0    63    0.9    14      2.5   920.8    0.00       0    54.9
  35   23:40   48.8    63    0.4   258      1.5   920.9    0.00       0    54.8
  35   23:50   48.1    65    0.3   338      1.5   921.0    0.00       0    54.7
  36    0:00   47.8    66    0.2   211      1.3   921.2    0.00       0    54.6
  36    0:10   47.2    68    0.3   184      1.2   921.3    0.00       0    54.5
  36    0:20   47.0    69    0.2   249      1.1   921.5    0.00       0    54.4
  36    0:30   46.5    69    0.4   340      2.7   921.5    0.00       0    54.3
  36    0:40   46.4    70    1.7   331      2.7   921.5    0.00       0    54.2
  36    0:50   46.6    69    0.6   344      1.5   921.4    0.00       0    54.2
  36    1:00   46.4    69    0.3   334      1.0   921.4    0.00       0    54.1
  36    1:10   45.9    70    0.1    58      1.0   921.4    0.00       0    54.0
  36    1:20   45.5    71    0.0     0      0.0   921.4    0.00       0    53.9
  36    1:30   45.9    70    0.0     2      0.5   921.5    0.00       0    53.9
  36    1:40   45.4    70    0.0     0      0.0   921.6    0.00       0    53.8
  36    1:50   44.8    72    0.1   212      0.7   921.5    0.00       0    53.7
  36    2:00   44.8    73    0.1   208      0.7   921.6    0.00       0    53.6
  36    2:10   44.4    74    0.2   223      1.2   921.5    0.00       0    53.5
  36    2:20   44.1    74    0.0   260      0.5   921.6    0.00       0    53.4
  36    2:30   43.8    75    0.0   297      0.6   921.6    0.00       0    53.3
  36    2:40   43.6    75    0.2   304      0.7   921.6    0.00       0    53.3
  36    2:50   43.9    75    0.1   314      0.7   921.6    0.00       0    53.2
  36    3:00   43.9    75    0.2   323      1.5   921.7    0.00       0    53.1
  36    3:10   44.0    75    0.7    60      2.8   921.6    0.00       0    53.0
  36    3:20   44.0    75    0.9   153      2.4   921.6    0.00       0    53.0
  36    3:30   43.6    75    0.2   138      1.5   921.6    0.00       0    52.9
  36    3:40   43.4    76    1.4   357      2.8   921.6    0.00       0    52.8
  36    3:50   43.3    75    0.0   353      0.6   921.6    0.00       0    52.7
  36    4:00   43.1    76    0.0     0      0.0   921.6    0.00       0    52.7
  36    4:10   42.7    76    0.1   353      0.7   921.5    0.00       0    52.6
  36    4:20   42.6    77    0.1   353      0.7   921.5    0.00       0    52.5
  36    4:30   42.5    77    0.2   356      1.4   921.4    0.00       0    52.4
  36    4:40   41.9    78    0.7   182      1.8   921.4    0.00       0    52.3
  36    4:50   41.4    79    0.2   205      0.9   921.4    0.00       0    52.2
  36    5:00   41.0    79    0.0   204      0.6   921.4    0.00       0    52.2
  36    5:10   40.7    80    0.0   301      0.4   921.4    0.00       0    52.1
  36    5:20   40.5    81    0.0     0      0.0   921.4    0.00       0    52.0
  36    5:30   40.7    81    0.0    57      1.0   921.5    0.00       0    51.9
  36    5:40   40.7    81    0.6    57      1.5   921.6    0.00       0    51.9
  36    5:50   40.7    80    0.2    50      1.2   921.4    0.00       0    51.8
  36    6:00   40.4    80    1.0   192      2.3   921.5    0.00       0    51.7
  36    6:10   39.7    81    0.0     0      0.0   921.7    0.00       0    51.6
  36    6:20   39.3    82    0.0   214      0.4   921.5    0.00       0    51.6
  36    6:30   39.1    82    0.3   300      1.2   921.6    0.00       0    51.5
  36    6:40   38.8    83    0.1   305      1.0   921.7    0.00       0    51.4
  36    6:50   38.8    84    0.9   334      2.0   921.8    0.00       0    51.4
  36    7:00   38.8    84    0.0     0      0.0   921.9    0.00       0    51.3
  36    7:10   38.7    84    0.0     0      0.0   922.0    0.00       0    51.2
  36    7:20   38.7    84    0.1   243      0.8   922.0    0.00       0    51.1
  36    7:30   38.6    84    0.1   235      0.9   922.0    0.00       0    51.0
  36    7:40   38.0    85    0.0     0      0.0   922.0    0.00       3    51.0
  36    7:50   38.3    85    0.0     0      0.0   922.1    0.00       8    50.9
  36    8:00   38.3    85    0.0     0      0.0   922.2    0.00      13    50.8
  36    8:10   38.5    85    0.7   204      2.1   922.4    0.00      17    50.7
  36    8:20   38.6    84    0.3   198      1.7   922.6    0.00      21    50.7
  36    8:30   38.8    84    0.0     0      0.0   922.9    0.00      62    50.6
  36    8:40   40.7    83    0.6   129      2.9   923.2    0.00     132    50.5
  36    8:50   42.5    77    1.7   120      2.8   923.1    0.00     162    50.5
  36    9:00   43.9    74    1.0   100      2.1   923.1    0.00     195    50.5
  36    9:10   45.6    70    1.5   157      2.9   923.1    0.00     237    50.5
  36    9:20   44.7    71    2.0   186      3.0   923.2    0.00     270    50.4
  36    9:30   44.7    72    1.9   183      3.1   923.3    0.00     301    50.4
  36    9:40   46.0    69    1.6   179      2.9   923.2    0.00     320    50.3
  36    9:50   46.3    69    1.8   184      3.8   923.2    0.00     345    50.3
  36   10:00   47.3    67    2.0   176      3.5   923.1    0.00     398    50.3
  36   10:10   48.1    66    2.0   163      3.6   923.0    0.00     468    50.3
  36   10:20   50.5    60    1.7   157      3.6   922.8    0.00     510    50.4
  36   10:30   50.2    59    2.1   186      4.7   922.9    0.00     395    50.4
  36   10:40   49.3    60    2.4   172      5.0   922.8    0.00     331    50.4
  36   10:50   50.0    59    2.0   183      4.6   922.9    0.00     355    50.5
  36   11:00   50.6    58    2.5   176      4.2   922.8    0.00     449    50.5
  36   11:10   51.1    56    2.3   172      4.7   922.8    0.00     472    50.6
  36   11:20   52.8    54    0.9    39      2.2   922.6    0.00     460    50.7
  36   11:30   53.1    52    1.1   294      2.9   922.4    0.00     428    50.8
  36   11:40   53.5    51    2.3   174      3.9   922.1    0.00     380    50.9
  36   11:50   52.5    53    1.4   172      3.7   922.0    0.00     314    51.0
  36   12:00   53.4    51    2.3   222      4.9   922.1    0.00     484    51.1
  36   12:10   54.0    50    2.7   223      5.6   921.9    0.00     552    51.2
  36   12:20   54.5    49    2.0   196      4.1   921.5    0.00     530    51.3
  36   12:30   55.5    48    1.6   157      3.9   921.2    0.00     520    51.4
  36   12:40   56.1    46    2.5   176      4.9   921.0    0.00     423    51.5
  36   12:50   56.0    47    1.8   181      4.2   920.7    0.00     380    51.7
  36   13:00   57.4    44    1.2   324      2.9   920.4    0.00     411    51.8
  36   13:10   57.8    44    1.4   268      3.4   920.2    0.00     450    51.9
  36   13:20   58.2    44    1.7   261      3.8   919.8    0.00     482    52.1
  36   13:30   58.9    43    1.3   178      3.1   919.3    0.00     420    52.2
  36   13:40   58.3    43    1.8   190      3.9   919.1    0.00     358    52.4
  36   13:50   58.5    43    1.9   240      3.1   918.8    0.00     344    52.5
  36   14:00   58.8    42    1.7   205      4.1   918.7    0.00     375    52.7
  36   14:10   59.6    41    2.9   199      5.3   918.6    0.00     389    52.8
  36   14:20   59.3    41    1.8   244      5.6   918.3    0.00     374    53.0
  36   14:30   59.7    40    2.4   183      4.0   918.0    0.00     375    53.1
  36   14:40   60.0    40    2.0   234      3.8   917.8    0.00     367    53.2
  36   14:50   60.3    40    1.5   222      5.0   917.6    0.00     311    53.3
  36   15:00   60.5    39    2.2   196      4.8   917.4    0.00     321    53.5
  36   15:10   61.2    38    1.6   160      3.3   917.2    0.00     319    53.6
  36   15:20   61.9    37    1.7   211      3.9   917.0    0.00     327    53.7
  36   15:30   61.5    37    1.8   213      4.4   916.9    0.00     278    53.8
  36   15:40   61.5    37    1.9   217      4.1   916.6    0.00     233    53.9
  36   15:50   61.7    37    2.5   203      4.0   916.3    0.00     216    54.1
  36   16:00   61.4    37    2.2   186      4.8   916.2    0.00     189    54.2
  36   16:10   61.2    37    2.1   200      5.2   916.2    0.00     149    54.3
  36   16:20   61.1    37    3.2   196      5.1   916.2    0.00     136    54.4
  36   16:30   60.7    38    3.8   183      5.8   916.1    0.00     127    54.4
  36   16:40   60.6    38    3.2   191      5.7   916.0    0.00     124    54.5
  36   16:50   60.4    39    4.0   192      6.1   916.0    0.00     105    54.6
  36   17:00   60.2    40    3.7   190      6.4   916.0    0.00     103    54.6
  36   17:10   60.1    40    3.5   192      5.9   916.0    0.00      83    54.7
  36   17:20   59.9    40    2.9   203      4.9   916.0    0.00      60    54.7
  36   17:30   59.6    41    2.7   210      4.7   916.1    0.00      37    54.8
  36   17:40   59.3    42    2.5   209      5.0   916.1    0.00      26    54.8
  36   17:50   59.1    42    2.4   222      4.6   916.3    0.00      15    54.8
  36   18:00   58.7    43    2.6   225      5.1   916.3    0.00       6    54.8
  36   18:10   58.5    43    1.9   219      3.8   916.4    0.00       3    54.9
  36   18:20   58.2    44    1.0   230      3.1   916.3    0.00       3    54.8
  36   18:30   57.9    44    0.6   225      1.8   916.5    0.00       0    54.8
  36   18:40   57.5    45    0.0   206      0.6   916.5    0.00       0    54.8
  36   18:50   56.9    47    0.0   205      0.4   916.6    0.00       0    54.8
  36   19:00   56.5    48    0.1     5      0.7   916.6    0.00       0    54.8
  36   19:10   56.2    48    0.1    89      0.7   916.6    0.00       0    54.8
  36   19:20   56.2    48    0.1   113      1.2   916.6    0.00       1    54.8
  36   19:30   56.0    48    0.8    98      2.1   916.5    0.00       0    54.7
  36   19:40   55.7    49    1.5    41      2.3   916.4    0.00       0    54.7
  36   19:50   55.7    50    1.3    54      2.4   916.3    0.00       0    54.6
  36   20:00   55.7    50    0.7    48      1.5   916.4    0.00       0    54.6
  36   20:10   55.2    51    0.2    49      1.2   916.5    0.00       1    54.6
  36   20:20   54.6    52    1.8   178      4.7   916.6    0.00       0    54.5
  36   20:30   54.6    53    1.2    84      2.9   916.5    0.00       0    54.5
  36   20:40   54.4    53    0.1   332      1.1   916.6    0.00       0    54.4
  36   20:50   54.2    53    0.6    42      1.8   916.7    0.00       0    54.4
  36   21:00   54.1    54    0.6    46      2.0   916.5    0.00       0    54.4
  36   21:10   54.0    54    0.1    69      1.8   916.5    0.00       0    54.3
  36   21:20   53.8    54    0.1    74      1.2   916.5    0.00       1    54.3
  36   21:30   53.9    54    0.5    69      2.0   916.5    0.00       0    54.2
  36   21:40   53.5    55    0.7    56      2.5   916.5    0.00       0    54.2
  36   21:50   53.3    55    0.1    44      0.9   916.5    0.00       0    54.1
  36   22:00   53.3    55    0.6    63      1.8   916.5    0.00       0    54.1

Return to St. George, Utah graphs page.


Western Regional Climate Center,wrcc@dri.edu